createdAt,value
2023-03-20T00:02:23.717Z,8.60
2023-03-20T00:04:51.679Z,8.32
2023-03-20T00:07:18.644Z,8.50
2023-03-20T00:10:12.653Z,8.50
2023-03-20T00:12:39.896Z,8.38
2023-03-20T00:15:15.006Z,7.97
2023-03-20T00:17:46.666Z,7.70
2023-03-20T00:20:17.623Z,8.07
2023-03-20T00:22:45.645Z,7.13
2023-03-20T00:25:14.941Z,7.90
2023-03-20T00:27:44.010Z,7.87
2023-03-20T00:30:22.387Z,7.82
2023-03-20T00:38:39.631Z,7.70
2023-03-20T00:41:24.805Z,8.20
2023-03-20T00:43:56.867Z,7.78
2023-03-20T00:46:24.648Z,7.80
2023-03-20T00:48:52.370Z,8.38
2023-03-20T00:51:21.735Z,8.32
2023-03-20T00:53:48.541Z,7.50
2023-03-20T00:56:39.623Z,7.57
2023-03-20T00:59:14.646Z,7.90
2023-03-20T01:01:43.662Z,7.65
2023-03-20T01:04:13.830Z,8.18
2023-03-20T01:06:40.762Z,7.67
2023-03-20T01:09:07.597Z,7.75
2023-03-20T01:11:36.051Z,7.88
2023-03-20T01:14:04.657Z,8.05
2023-03-20T01:16:33.677Z,8.35
2023-03-20T01:19:00.462Z,8.23
2023-03-20T01:21:31.412Z,8.50
2023-03-20T01:23:58.242Z,8.30
2023-03-20T01:26:45.572Z,8.00
2023-03-20T01:29:25.685Z,7.70
2023-03-20T01:31:54.635Z,7.33
2023-03-20T01:34:24.209Z,8.60
2023-03-20T01:36:57.630Z,8.57
2023-03-20T01:39:49.513Z,7.90
2023-03-20T01:42:20.561Z,7.97
2023-03-20T01:44:48.653Z,8.00
2023-03-20T01:47:19.599Z,8.30
2023-03-20T01:50:22.076Z,8.00
2023-03-20T01:53:23.686Z,8.43
2023-03-20T01:55:58.371Z,8.27
2023-03-20T01:58:38.554Z,8.37
2023-03-20T02:01:08.127Z,8.88
2023-03-20T02:03:36.027Z,8.82
2023-03-20T02:06:29.648Z,8.93
2023-03-20T02:09:13.386Z,8.82
2023-03-20T02:11:45.748Z,8.43
2023-03-20T02:14:15.020Z,8.95
2023-03-20T02:16:58.690Z,9.32
2023-03-20T02:19:57.851Z,8.95
2023-03-20T02:22:47.616Z,8.63
2023-03-20T02:25:39.539Z,8.70
2023-03-20T02:28:44.715Z,8.57
2023-03-20T02:31:35.605Z,9.07
2023-03-20T02:34:31.771Z,8.40
2023-03-20T02:37:36.317Z,9.68
2023-03-20T02:40:41.600Z,9.40
2023-03-20T02:43:21.407Z,9.40
2023-03-20T02:45:57.697Z,9.80
2023-03-20T02:48:44.039Z,10.00
2023-03-20T02:51:46.628Z,9.38
2023-03-20T02:54:45.658Z,10.37
2023-03-20T02:57:23.618Z,9.68
2023-03-20T03:00:10.909Z,10.30
2023-03-20T03:02:52.524Z,10.23
2023-03-20T03:05:26.630Z,9.98
2023-03-20T03:08:00.558Z,10.10
2023-03-20T03:10:52.074Z,10.02
2023-03-20T03:13:23.646Z,10.73
2023-03-20T03:15:55.547Z,10.20
2023-03-20T03:18:27.630Z,10.70
2023-03-20T03:21:00.718Z,10.20
2023-03-20T03:23:36.612Z,10.18
2023-03-20T03:26:07.700Z,10.93
2023-03-20T03:28:46.553Z,10.68
2023-03-20T03:31:18.560Z,10.05
2023-03-20T03:33:50.733Z,10.53
2023-03-20T03:36:23.467Z,9.98
2023-03-20T03:39:00.091Z,10.77
2023-03-20T03:41:39.253Z,11.70
2023-03-20T03:44:12.245Z,10.52
2023-03-20T03:46:45.450Z,10.57
2023-03-20T03:49:19.934Z,10.50
2023-03-20T03:51:52.008Z,10.52
2023-03-20T03:54:23.331Z,10.75
2023-03-20T03:57:31.794Z,10.75
2023-03-20T04:00:03.702Z,11.33
2023-03-20T04:02:43.977Z,10.80
2023-03-20T04:05:13.978Z,11.05
2023-03-20T04:07:45.855Z,11.45
2023-03-20T04:10:16.684Z,10.90
2023-03-20T04:12:45.122Z,11.63
2023-03-20T04:15:13.871Z,11.30
2023-03-20T04:17:43.680Z,10.02
2023-03-20T04:20:14.039Z,10.80
2023-03-20T04:22:41.174Z,11.50
2023-03-20T04:25:20.660Z,10.87
2023-03-20T04:27:52.406Z,11.10
2023-03-20T04:30:39.673Z,10.85
2023-03-20T04:33:42.241Z,10.40
2023-03-20T04:36:34.147Z,10.48
2023-03-20T04:39:03.083Z,10.33
2023-03-20T04:41:30.084Z,10.45
2023-03-20T04:44:00.445Z,10.80
2023-03-20T04:46:27.342Z,10.45
2023-03-20T04:48:55.639Z,10.43
2023-03-20T04:51:26.033Z,10.73
2023-03-20T04:53:53.987Z,10.30
2023-03-20T04:56:20.746Z,11.25
2023-03-20T04:58:50.808Z,11.18
2023-03-20T05:01:20.746Z,10.65
2023-03-20T05:03:50.434Z,11.03
2023-03-20T05:06:17.324Z,11.43
2023-03-20T05:08:45.496Z,11.65
2023-03-20T05:11:12.318Z,10.95
2023-03-20T05:14:10.207Z,11.27
2023-03-20T05:16:51.800Z,11.87
2023-03-20T05:19:40.170Z,11.40
2023-03-20T05:22:39.186Z,11.63
2023-03-20T05:25:11.842Z,11.65
2023-03-20T05:27:47.822Z,11.38
2023-03-20T05:30:43.978Z,11.27
2023-03-20T05:33:37.926Z,11.65
2023-03-20T05:36:40.482Z,11.52
2023-03-20T05:39:23.177Z,11.93
2023-03-20T05:42:15.676Z,11.43
2023-03-20T05:45:11.592Z,10.93
2023-03-20T05:47:42.240Z,11.20
2023-03-20T05:50:24.126Z,11.32
2023-03-20T05:53:09.423Z,11.07
2023-03-20T05:55:54.535Z,12.18
2023-03-20T05:58:39.757Z,11.57
2023-03-20T06:01:38.692Z,11.75
2023-03-20T06:04:20.873Z,11.23
2023-03-20T06:07:08.000Z,12.05
2023-03-20T06:09:36.798Z,12.13
2023-03-20T06:12:08.871Z,11.67
2023-03-20T06:14:35.704Z,11.98
2023-03-20T06:17:06.357Z,12.15
2023-03-20T06:19:33.868Z,11.85
2023-03-20T06:22:00.704Z,11.77
2023-03-20T06:24:27.593Z,11.40
2023-03-20T06:26:54.467Z,11.27
2023-03-20T06:29:21.535Z,11.70
2023-03-20T06:31:51.707Z,10.38
2023-03-20T06:34:26.054Z,11.30
2023-03-20T06:36:52.932Z,12.00
2023-03-20T06:39:23.210Z,11.35
2023-03-20T06:41:50.151Z,12.40
2023-03-20T06:44:18.880Z,10.90
2023-03-20T06:47:15.524Z,10.55
2023-03-20T06:49:45.721Z,10.50
2023-03-20T06:52:17.631Z,10.63
2023-03-20T06:54:49.764Z,9.20
2023-03-20T06:57:16.640Z,9.10
2023-03-20T06:59:43.667Z,9.50
2023-03-20T07:02:11.562Z,9.27
2023-03-20T07:04:39.990Z,8.45
2023-03-20T07:07:07.864Z,8.23
2023-03-20T07:09:35.416Z,8.27
2023-03-20T07:12:02.321Z,7.78
2023-03-20T07:14:31.700Z,8.40
2023-03-20T07:17:03.513Z,8.85
2023-03-20T07:19:30.671Z,8.38
2023-03-20T07:22:02.218Z,7.50
2023-03-20T07:24:34.952Z,7.65
2023-03-20T07:27:01.914Z,7.30
2023-03-20T07:29:30.051Z,7.65
2023-03-20T07:31:57.872Z,6.80
2023-03-20T07:34:29.393Z,7.60
2023-03-20T07:36:59.177Z,8.65
2023-03-20T07:39:26.540Z,9.37
2023-03-20T07:42:05.692Z,6.68
2023-03-20T07:44:45.184Z,6.95
2023-03-20T07:47:12.318Z,7.72
2023-03-20T07:49:39.217Z,6.13
2023-03-20T07:52:08.280Z,6.00
2023-03-20T07:54:35.402Z,5.45
2023-03-20T07:57:02.332Z,5.30
2023-03-20T07:59:29.143Z,5.07
2023-03-20T08:01:55.980Z,5.18
2023-03-20T08:04:22.876Z,7.27
2023-03-20T08:06:50.981Z,5.88
2023-03-20T08:09:18.892Z,5.90
2023-03-20T08:11:45.904Z,6.47
2023-03-20T08:14:13.150Z,6.47
2023-03-20T08:16:40.128Z,5.00
2023-03-20T08:19:07.234Z,4.93
2023-03-20T08:21:34.076Z,5.20
2023-03-20T08:24:01.139Z,4.85
2023-03-20T08:26:28.050Z,5.95
2023-03-20T08:28:54.852Z,4.90
2023-03-20T08:31:21.730Z,4.20
2023-03-20T08:33:48.721Z,4.22
2023-03-20T08:36:16.276Z,3.92
2023-03-20T08:38:43.773Z,5.18
2023-03-20T08:41:10.727Z,4.03
2023-03-20T08:43:37.505Z,4.05
2023-03-20T08:46:05.263Z,4.07
2023-03-20T08:48:32.506Z,3.47
2023-03-20T08:50:59.414Z,3.10
2023-03-20T08:53:26.689Z,3.90
2023-03-20T08:55:54.056Z,3.10
2023-03-20T08:58:21.570Z,2.90
2023-03-20T09:00:48.491Z,3.08
2023-03-20T09:03:18.100Z,5.43
2023-03-20T09:05:46.774Z,3.00
2023-03-20T09:08:14.523Z,2.90
2023-03-20T09:10:41.395Z,2.92
2023-03-20T09:13:25.784Z,3.10
2023-03-20T09:15:54.054Z,3.08
2023-03-20T09:18:21.352Z,3.37
2023-03-20T09:20:48.565Z,2.95
2023-03-20T09:23:15.996Z,2.60
2023-03-20T09:25:42.914Z,1.70
2023-03-20T09:28:09.941Z,1.20
2023-03-20T09:30:37.514Z,2.10
2023-03-20T09:33:04.810Z,2.10
2023-03-20T09:35:31.769Z,2.00
2023-03-20T09:37:58.680Z,2.03
2023-03-20T09:41:02.172Z,2.30
2023-03-20T09:44:06.085Z,1.40
2023-03-20T09:47:16.429Z,1.75
2023-03-20T09:49:55.254Z,3.63
2023-03-20T09:52:30.898Z,1.33
2023-03-20T09:55:02.341Z,1.40
2023-03-20T09:57:38.723Z,1.60
2023-03-20T10:00:18.746Z,1.40
2023-03-20T10:03:05.643Z,1.70
2023-03-20T10:05:42.869Z,2.13
2023-03-20T10:08:21.170Z,1.83
2023-03-20T10:11:13.110Z,2.80
2023-03-20T10:14:04.988Z,2.00
2023-03-20T10:16:46.485Z,4.55
2023-03-20T10:19:31.141Z,6.35
2023-03-20T10:22:06.401Z,2.70
2023-03-20T10:24:38.986Z,1.30
2023-03-20T10:27:22.120Z,1.00
2023-03-20T10:30:14.883Z,8.32
2023-03-20T10:33:12.763Z,2.00
2023-03-20T10:35:57.724Z,2.22
2023-03-20T10:38:53.495Z,1.37
2023-03-20T10:41:28.273Z,12.57
2023-03-20T10:43:57.586Z,2.08
2023-03-20T10:46:29.894Z,1.20
2023-03-20T10:49:15.592Z,1.40
2023-03-20T10:51:48.733Z,1.60
2023-03-20T10:54:29.691Z,1.10
2023-03-20T10:56:59.294Z,0.98
2023-03-20T10:59:35.178Z,4.32
2023-03-20T11:02:02.208Z,1.85
2023-03-20T11:04:28.989Z,1.33
2023-03-20T11:07:00.918Z,1.10
2023-03-20T11:09:27.977Z,2.10
2023-03-20T11:11:58.001Z,2.13
2023-03-20T11:14:28.126Z,1.52
2023-03-20T11:17:00.216Z,2.00
2023-03-20T11:19:27.094Z,2.00
2023-03-20T11:21:57.311Z,2.08
2023-03-20T11:24:44.892Z,1.70
2023-03-20T11:27:15.065Z,1.73
2023-03-20T11:29:45.711Z,2.50
2023-03-20T11:32:32.942Z,2.58
2023-03-20T11:35:29.034Z,2.10
2023-03-20T11:38:08.486Z,2.10
2023-03-20T11:40:35.843Z,2.13
2023-03-20T11:43:02.688Z,2.20
2023-03-20T11:45:44.380Z,2.47
2023-03-20T11:48:23.886Z,1.90
2023-03-20T11:51:03.910Z,1.92
2023-03-20T11:53:54.402Z,1.90
2023-03-20T11:56:24.379Z,2.47
2023-03-20T11:59:07.046Z,2.83
2023-03-20T12:01:46.314Z,2.95
2023-03-20T12:04:26.157Z,1.98
2023-03-20T12:07:04.613Z,2.17
2023-03-20T12:09:43.015Z,2.30
2023-03-20T12:12:48.978Z,4.20
2023-03-20T12:15:22.720Z,4.60
2023-03-20T12:18:23.359Z,2.92
2023-03-20T12:21:19.629Z,2.13
2023-03-20T12:23:56.540Z,4.60
2023-03-20T12:26:36.562Z,1.33
2023-03-20T12:29:36.334Z,0.73
2023-03-20T12:32:20.882Z,0.90
2023-03-20T12:34:55.842Z,1.50
2023-03-20T12:37:23.416Z,1.60
2023-03-20T12:40:01.840Z,2.67
2023-03-20T12:42:59.658Z,2.58
2023-03-20T12:45:44.211Z,2.00
2023-03-20T12:48:24.083Z,1.50
2023-03-20T12:51:07.787Z,2.07
2023-03-20T12:54:12.056Z,5.65
2023-03-20T12:57:23.352Z,6.03
2023-03-20T12:59:50.102Z,6.50
2023-03-20T13:02:26.846Z,1.90
2023-03-20T13:05:16.769Z,0.53
2023-03-20T13:08:00.603Z,0.50
2023-03-20T13:10:39.481Z,1.70
2023-03-20T13:13:33.809Z,1.52
2023-03-20T13:16:15.490Z,1.58
2023-03-20T13:19:30.174Z,1.20
2023-03-20T13:22:10.569Z,4.95
2023-03-20T13:24:44.745Z,3.58
2023-03-20T13:27:35.950Z,3.47
2023-03-20T13:30:34.496Z,1.00
2023-03-20T13:33:09.839Z,5.97
2023-03-20T13:36:17.223Z,9.65
2023-03-20T13:38:50.240Z,2.53
2023-03-20T13:41:17.573Z,1.70
2023-03-20T13:43:51.558Z,0.60
2023-03-20T13:46:42.936Z,0.87
2023-03-20T13:49:58.700Z,2.78
2023-03-20T13:52:39.766Z,4.90
2023-03-20T13:55:48.427Z,1.38
2023-03-20T13:58:52.649Z,1.33
2023-03-20T14:01:47.249Z,1.80
2023-03-20T14:04:20.581Z,1.20
2023-03-20T14:06:52.618Z,1.20
2023-03-20T14:09:34.322Z,1.23
2023-03-20T14:12:11.116Z,1.17
2023-03-20T14:14:47.135Z,1.20
2023-03-20T14:17:18.896Z,1.50
2023-03-20T14:19:46.491Z,1.33
2023-03-20T14:22:28.651Z,1.52
2023-03-20T14:25:03.930Z,2.05
2023-03-20T14:27:44.418Z,1.57
2023-03-20T14:30:30.187Z,1.90
2023-03-20T14:33:01.235Z,1.90
2023-03-20T14:35:29.305Z,1.40
2023-03-20T14:38:08.218Z,1.50
2023-03-20T14:40:43.774Z,1.30
2023-03-20T14:43:22.765Z,1.65
2023-03-20T14:45:58.024Z,1.92
2023-03-20T14:48:36.187Z,1.60
2023-03-20T14:51:21.490Z,1.70
2023-03-20T14:54:18.443Z,2.00
2023-03-20T14:56:45.378Z,2.00
2023-03-20T14:59:14.505Z,2.00
2023-03-20T15:01:54.699Z,2.10
2023-03-20T15:04:32.693Z,1.55
2023-03-20T15:07:04.691Z,1.80
2023-03-20T15:09:35.274Z,1.95
2023-03-20T15:12:03.752Z,4.40
2023-03-20T15:15:01.716Z,1.20
2023-03-20T15:17:37.094Z,1.35
2023-03-20T15:20:13.004Z,1.10
2023-03-20T15:22:51.955Z,1.50
2023-03-20T15:25:21.145Z,1.20
2023-03-20T15:27:49.125Z,1.20
2023-03-20T15:30:19.803Z,1.08
2023-03-20T15:32:49.472Z,1.40
2023-03-20T15:35:21.739Z,1.23
2023-03-20T15:37:52.156Z,1.02
2023-03-20T15:40:24.407Z,1.20
2023-03-20T15:43:19.058Z,1.33
2023-03-20T15:45:45.961Z,1.20
2023-03-20T15:48:15.969Z,1.00
2023-03-20T15:50:46.110Z,1.45
2023-03-20T15:53:19.672Z,1.50
2023-03-20T15:56:17.888Z,1.10
2023-03-20T15:58:49.159Z,1.73
2023-03-20T16:01:19.310Z,0.80
2023-03-20T16:03:46.795Z,0.88
2023-03-20T16:06:16.367Z,0.77
2023-03-20T16:08:45.241Z,0.80
2023-03-20T16:11:17.541Z,0.80
2023-03-20T16:13:49.866Z,0.60
2023-03-20T16:16:23.522Z,0.60
2023-03-20T16:18:52.710Z,0.60
2023-03-20T16:21:27.408Z,0.77
2023-03-20T16:23:57.939Z,0.67
2023-03-20T16:26:27.143Z,0.63
2023-03-20T16:29:01.520Z,0.40
2023-03-20T16:31:33.528Z,0.68
2023-03-20T16:34:07.711Z,0.60
2023-03-20T16:36:38.806Z,0.80
2023-03-20T16:39:17.785Z,0.70
2023-03-20T16:41:46.442Z,0.52
2023-03-20T16:44:18.281Z,0.70
2023-03-20T16:46:58.312Z,0.90
2023-03-20T16:49:29.734Z,0.80
2023-03-20T16:52:02.117Z,1.00
2023-03-20T16:54:35.221Z,1.33
2023-03-20T16:57:02.467Z,1.25
2023-03-20T16:59:30.197Z,0.90
2023-03-20T17:02:00.356Z,0.80
2023-03-20T17:04:39.103Z,1.33
2023-03-20T17:07:19.794Z,1.40
2023-03-20T17:10:16.665Z,1.20
2023-03-20T17:12:46.473Z,1.30
2023-03-20T17:15:17.095Z,1.50
2023-03-20T17:17:44.712Z,1.60
2023-03-20T17:20:24.829Z,1.50
2023-03-20T17:22:53.368Z,1.35
2023-03-20T17:25:21.102Z,1.40
2023-03-20T17:27:48.730Z,1.30
2023-03-20T17:30:22.696Z,1.30
2023-03-20T17:32:51.900Z,1.25
2023-03-20T17:35:19.269Z,1.60
2023-03-20T17:37:48.766Z,1.60
2023-03-20T17:40:20.892Z,1.73
2023-03-20T17:42:51.662Z,1.20
2023-03-20T17:45:20.826Z,1.50
2023-03-20T17:47:50.712Z,1.48
2023-03-20T17:50:23.672Z,1.73
2023-03-20T17:52:51.436Z,1.90
2023-03-20T17:55:18.531Z,1.98
2023-03-20T17:57:49.787Z,1.65
2023-03-20T18:00:23.116Z,2.22
2023-03-20T18:02:50.953Z,2.30
2023-03-20T18:05:18.218Z,2.67
2023-03-20T18:07:45.442Z,2.40
2023-03-20T18:10:30.855Z,2.50
2023-03-20T18:12:58.874Z,2.65
2023-03-20T18:15:26.759Z,2.58
2023-03-20T18:17:56.033Z,2.43
2023-03-20T18:20:25.292Z,2.13
2023-03-20T18:22:53.008Z,2.30
2023-03-20T18:25:21.429Z,2.72
2023-03-20T18:27:50.854Z,2.78
2023-03-20T18:30:23.134Z,2.80
2023-03-20T18:32:51.064Z,2.40
2023-03-20T18:35:19.448Z,2.60
2023-03-20T18:37:47.690Z,2.90
2023-03-20T18:40:26.372Z,2.72
2023-03-20T18:42:57.862Z,3.30
2023-03-20T18:45:27.452Z,3.10
2023-03-20T18:47:57.148Z,3.15
2023-03-20T18:50:31.372Z,3.28
2023-03-20T18:55:54.330Z,3.70
2023-03-20T18:58:25.859Z,3.45
2023-03-20T19:00:57.236Z,3.42
2023-03-20T19:03:26.684Z,3.38
2023-03-20T19:06:02.226Z,3.42
2023-03-20T19:08:31.277Z,3.50
2023-03-20T19:10:59.734Z,3.10
2023-03-20T19:13:30.957Z,3.42
2023-03-20T19:15:59.919Z,3.42
2023-03-20T19:18:31.899Z,3.45
2023-03-20T19:21:00.176Z,3.20
2023-03-20T19:23:28.404Z,3.45
2023-03-20T19:26:00.979Z,3.30
2023-03-20T19:28:40.544Z,3.20
2023-03-20T19:31:10.274Z,3.35
2023-03-20T19:33:40.185Z,3.70
2023-03-20T19:36:15.374Z,3.10
2023-03-20T19:38:44.886Z,3.15
2023-03-20T19:41:13.094Z,2.90
2023-03-20T19:43:52.092Z,3.08
2023-03-20T19:46:40.205Z,2.97
2023-03-20T19:49:30.431Z,3.00
2023-03-20T19:51:59.245Z,3.10
2023-03-20T19:54:27.207Z,3.22
2023-03-20T19:56:55.873Z,2.78
2023-03-20T19:59:23.427Z,2.67
2023-03-20T20:01:52.500Z,2.70
2023-03-20T20:04:24.789Z,2.70
2023-03-20T20:06:55.700Z,2.75
2023-03-20T20:09:29.890Z,2.50
2023-03-20T20:11:57.656Z,3.07
2023-03-20T20:14:26.714Z,2.67
2023-03-20T20:16:54.665Z,2.95
2023-03-20T20:19:24.745Z,2.60
2023-03-20T20:24:40.758Z,2.80
2023-03-20T20:27:18.827Z,2.45
2023-03-20T20:29:52.160Z,2.92
2023-03-20T20:32:23.156Z,2.78
2023-03-20T20:35:43.992Z,2.75
2023-03-20T20:38:40.449Z,2.70
2023-03-20T20:40:55.429Z,2.55
2023-03-20T20:43:50.686Z,2.72
2023-03-20T20:46:11.498Z,2.70
2023-03-20T20:48:41.966Z,2.70
2023-03-20T20:51:14.180Z,2.70
2023-03-20T20:53:41.727Z,2.90
2023-03-20T20:56:09.846Z,2.92
2023-03-20T20:58:38.933Z,2.83
2023-03-20T21:01:06.522Z,2.70
2023-03-20T21:03:35.686Z,2.50
2023-03-20T21:06:06.864Z,2.45
2023-03-20T21:08:34.212Z,2.58
2023-03-20T21:11:01.841Z,2.88
2023-03-20T21:13:28.838Z,2.50
2023-03-20T21:16:00.810Z,2.30
2023-03-20T21:18:30.424Z,2.30
2023-03-20T21:21:10.934Z,2.30
2023-03-20T21:23:39.450Z,1.80
2023-03-20T21:26:09.213Z,1.70
2023-03-20T21:28:38.268Z,1.60
2023-03-20T21:31:23.857Z,1.67
2023-03-20T21:34:17.092Z,1.65
2023-03-20T21:36:48.797Z,1.35
2023-03-20T21:42:11.028Z,1.40
2023-03-20T21:48:13.965Z,1.20
2023-03-20T22:02:04.874Z,1.63
2023-03-20T22:07:49.129Z,1.77
2023-03-20T22:10:37.544Z,2.00
2023-03-20T22:13:51.473Z,2.05
2023-03-20T22:16:10.946Z,1.95
2023-03-20T22:19:05.645Z,1.90
2023-03-20T22:27:32.497Z,1.73
2023-03-20T22:30:07.211Z,2.15
2023-03-20T22:35:54.332Z,2.42
2023-03-20T22:41:36.234Z,2.65
2023-03-20T22:46:44.284Z,2.50
2023-03-20T22:49:10.354Z,2.25
2023-03-20T22:51:44.202Z,2.43
2023-03-20T22:54:21.569Z,2.03
2023-03-20T22:56:48.911Z,2.40
2023-03-20T22:59:15.881Z,2.30
2023-03-20T23:01:42.610Z,2.40
2023-03-20T23:04:14.843Z,2.50
2023-03-20T23:06:41.809Z,2.20
2023-03-20T23:09:15.053Z,2.40
2023-03-20T23:11:44.503Z,2.22
2023-03-20T23:14:21.723Z,2.25
2023-03-20T23:16:50.098Z,2.27
2023-03-20T23:19:17.084Z,2.20
2023-03-20T23:21:44.357Z,2.20
2023-03-20T23:24:11.144Z,2.40
2023-03-20T23:26:38.030Z,2.17
2023-03-20T23:29:05.812Z,2.30
2023-03-20T23:31:34.376Z,2.40
2023-03-20T23:34:04.772Z,2.20
2023-03-20T23:36:36.906Z,2.20
2023-03-20T23:39:08.466Z,2.08
2023-03-20T23:42:05.068Z,2.20
2023-03-20T23:44:25.809Z,1.90
2023-03-20T23:46:53.719Z,2.20
2023-03-20T23:49:20.531Z,2.38
2023-03-20T23:51:47.716Z,1.85
2023-03-20T23:54:14.670Z,1.90
2023-03-20T23:56:43.734Z,2.17
2023-03-20T23:59:21.177Z,2.10
